sensor_id;sensor_type;location;lat;lon;timestamp;pressure;altitude;pressure_sealevel;temperature;humidity
45864;BME280;31579;52.354;16.974;2022-12-08T00:02:04;835.7;;;-146.1;100.0
45864;BME280;31579;52.354;16.974;2022-12-08T00:03:06;827.8;;;-146.1;100.0
45864;BME280;31579;52.354;16.974;2022-12-08T00:04:10;847.3;;;-146.1;100.0
45864;BME280;31579;52.354;16.974;2022-12-08T00:05:13;849.9;;;-146.1;100.0
45864;BME280;31579;52.354;16.974;2022-12-08T00:07:19;846.3;;;-146.1;100.0
45864;BME280;31579;52.354;16.974;2022-12-08T00:08:22;844.0;;;-146.1;100.0
45864;BME280;31579;52.354;16.974;2022-12-08T00:10:28;839.4;;;-146.1;100.0
45864;BME280;31579;52.354;16.974;2022-12-08T00:11:31;837.5;;;-146.1;100.0
45864;BME280;31579;52.354;16.974;2022-12-08T00:12:34;835.6;;;-146.1;100.0
45864;BME280;31579;52.354;16.974;2022-12-08T00:13:37;833.9;;;-146.1;100.0
45864;BME280;31579;52.354;16.974;2022-12-08T00:14:41;832.8;;;-146.1;100.0
45864;BME280;31579;52.354;16.974;2022-12-08T00:15:43;831.1;;;-146.1;100.0
45864;BME280;31579;52.354;16.974;2022-12-08T00:16:46;830.0;;;-146.1;100.0
45864;BME280;31579;52.354;16.974;2022-12-08T00:17:49;829.2;;;-146.1;100.0
45864;BME280;31579;52.354;16.974;2022-12-08T00:18:53;828.7;;;-146.1;100.0
45864;BME280;31579;52.354;16.974;2022-12-08T00:19:56;828.5;;;-146.1;100.0
45864;BME280;31579;52.354;16.974;2022-12-08T00:20:59;827.9;;;-146.1;100.0
45864;BME280;31579;52.354;16.974;2022-12-08T00:22:01;815.8;;;-146.1;100.0
45864;BME280;31579;52.354;16.974;2022-12-08T00:23:05;835.1;;;-146.1;100.0
45864;BME280;31579;52.354;16.974;2022-12-08T00:24:08;837.9;;;-146.1;100.0
45864;BME280;31579;52.354;16.974;2022-12-08T00:25:11;836.5;;;-146.1;100.0
45864;BME280;31579;52.354;16.974;2022-12-08T00:26:15;834.8;;;-146.1;100.0
45864;BME280;31579;52.354;16.974;2022-12-08T00:27:18;833.6;;;-146.1;100.0
45864;BME280;31579;52.354;16.974;2022-12-08T00:28:21;831.9;;;-146.1;100.0
45864;BME280;31579;52.354;16.974;2022-12-08T00:29:24;830.2;;;-146.1;100.0
45864;BME280;31579;52.354;16.974;2022-12-08T00:30:27;828.5;;;-146.1;100.0
45864;BME280;31579;52.354;16.974;2022-12-08T00:31:30;826.8;;;-146.1;100.0
45864;BME280;31579;52.354;16.974;2022-12-08T00:32:33;825.1;;;-146.1;100.0
45864;BME280;31579;52.354;16.974;2022-12-08T00:33:36;823.8;;;-146.1;100.0
45864;BME280;31579;52.354;16.974;2022-12-08T00:34:39;823.1;;;-146.1;100.0
45864;BME280;31579;52.354;16.974;2022-12-08T00:35:42;822.7;;;-146.1;100.0
45864;BME280;31579;52.354;16.974;2022-12-08T00:36:45;822.2;;;-146.1;100.0
45864;BME280;31579;52.354;16.974;2022-12-08T00:37:48;822.0;;;-146.1;100.0
45864;BME280;31579;52.354;16.974;2022-12-08T00:38:51;821.8;;;-146.1;100.0
45864;BME280;31579;52.354;16.974;2022-12-08T00:39:55;821.9;;;-146.1;100.0
45864;BME280;31579;52.354;16.974;2022-12-08T00:40:58;822.3;;;-146.1;100.0
45864;BME280;31579;52.354;16.974;2022-12-08T00:42:02;842.4;;;-146.1;100.0
45864;BME280;31579;52.354;16.974;2022-12-08T00:43:05;815.1;;;-146.1;100.0
45864;BME280;31579;52.354;16.974;2022-12-08T00:44:08;812.6;;;-146.1;100.0
45864;BME280;31579;52.354;16.974;2022-12-08T00:45:11;814.1;;;-146.1;100.0
45864;BME280;31579;52.354;16.974;2022-12-08T00:46:14;816.2;;;-146.1;100.0
45864;BME280;31579;52.354;16.974;2022-12-08T00:47:17;818.1;;;-146.1;100.0
45864;BME280;31579;52.354;16.974;2022-12-08T00:48:20;820.6;;;-146.1;100.0
45864;BME280;31579;52.354;16.974;2022-12-08T00:49:23;822.8;;;-146.1;100.0
45864;BME280;31579;52.354;16.974;2022-12-08T00:50:26;825.2;;;-146.1;100.0
45864;BME280;31579;52.354;16.974;2022-12-08T00:51:29;827.4;;;-146.1;100.0
45864;BME280;31579;52.354;16.974;2022-12-08T00:52:32;829.2;;;-146.1;100.0
45864;BME280;31579;52.354;16.974;2022-12-08T00:53:35;831.0;;;-146.1;100.0
45864;BME280;31579;52.354;16.974;2022-12-08T00:54:38;832.6;;;-146.1;100.0
45864;BME280;31579;52.354;16.974;2022-12-08T00:55:41;834.2;;;-146.1;100.0
45864;BME280;31579;52.354;16.974;2022-12-08T00:56:44;835.1;;;-146.1;100.0
45864;BME280;31579;52.354;16.974;2022-12-08T00:57:47;836.0;;;-146.1;100.0
45864;BME280;31579;52.354;16.974;2022-12-08T00:58:58;899.6;;;-146.1;100.0
45864;BME280;31579;52.354;16.974;2022-12-08T01:00:02;834.7;;;-146.1;100.0
45864;BME280;31579;52.354;16.974;2022-12-08T01:01:09;804.8;;;-146.1;100.0
45864;BME280;31579;52.354;16.974;2022-12-08T01:02:08;807.9;;;-146.1;100.0
45864;BME280;31579;52.354;16.974;2022-12-08T01:03:11;815.6;;;-146.1;100.0
45864;BME280;31579;52.354;16.974;2022-12-08T01:04:14;823.9;;;-146.1;100.0
45864;BME280;31579;52.354;16.974;2022-12-08T01:05:17;830.8;;;-146.1;100.0
45864;BME280;31579;52.354;16.974;2022-12-08T01:06:20;838.2;;;-146.1;100.0
45864;BME280;31579;52.354;16.974;2022-12-08T01:07:23;844.5;;;-146.1;100.0
45864;BME280;31579;52.354;16.974;2022-12-08T01:08:26;850.2;;;-146.1;100.0
45864;BME280;31579;52.354;16.974;2022-12-08T01:09:29;855.2;;;-146.1;100.0
45864;BME280;31579;52.354;16.974;2022-12-08T01:10:34;859.6;;;-146.1;100.0
45864;BME280;31579;52.354;16.974;2022-12-08T01:11:36;863.8;;;-146.1;100.0
45864;BME280;31579;52.354;16.974;2022-12-08T01:12:39;867.4;;;-146.1;100.0
45864;BME280;31579;52.354;16.974;2022-12-08T01:13:42;870.6;;;-146.1;100.0
45864;BME280;31579;52.354;16.974;2022-12-08T01:14:46;873.6;;;-146.1;100.0
45864;BME280;31579;52.354;16.974;2022-12-08T01:15:49;876.8;;;-146.1;100.0
45864;BME280;31579;52.354;16.974;2022-12-08T01:16:52;881.0;;;-146.1;100.0
45864;BME280;31579;52.354;16.974;2022-12-08T01:18:01;925.8;;;-146.1;100.0
45864;BME280;31579;52.354;16.974;2022-12-08T01:19:04;867.0;;;-146.1;100.0
45864;BME280;31579;52.354;16.974;2022-12-08T01:20:07;864.0;;;-146.1;100.0
45864;BME280;31579;52.354;16.974;2022-12-08T01:21:10;868.3;;;-146.1;100.0
45864;BME280;31579;52.354;16.974;2022-12-08T01:22:13;873.4;;;-146.1;100.0
45864;BME280;31579;52.354;16.974;2022-12-08T01:23:11;884.5;;;-146.1;100.0
45864;BME280;31579;52.354;16.974;2022-12-08T01:24:15;878.4;;;-146.1;100.0
45864;BME280;31579;52.354;16.974;2022-12-08T01:25:17;882.6;;;-146.1;100.0
45864;BME280;31579;52.354;16.974;2022-12-08T01:26:20;887.2;;;-146.1;100.0
45864;BME280;31579;52.354;16.974;2022-12-08T01:27:23;892.9;;;-146.1;100.0
45864;BME280;31579;52.354;16.974;2022-12-08T01:28:26;897.3;;;-146.1;100.0
45864;BME280;31579;52.354;16.974;2022-12-08T01:29:29;902.0;;;-146.1;100.0
45864;BME280;31579;52.354;16.974;2022-12-08T01:30:32;906.0;;;-146.1;100.0
45864;BME280;31579;52.354;16.974;2022-12-08T01:31:35;909.6;;;-146.1;100.0
45864;BME280;31579;52.354;16.974;2022-12-08T01:32:38;913.2;;;-146.1;100.0
45864;BME280;31579;52.354;16.974;2022-12-08T01:33:41;916.8;;;-146.1;100.0
45864;BME280;31579;52.354;16.974;2022-12-08T01:34:44;919.9;;;-146.1;100.0
45864;BME280;31579;52.354;16.974;2022-12-08T01:35:47;922.7;;;-146.1;100.0
45864;BME280;31579;52.354;16.974;2022-12-08T01:36:50;925.6;;;-146.1;100.0
45864;BME280;31579;52.354;16.974;2022-12-08T01:37:53;927.8;;;-146.1;100.0
45864;BME280;31579;52.354;16.974;2022-12-08T01:38:57;930.2;;;-146.1;100.0
45864;BME280;31579;52.354;16.974;2022-12-08T01:39:59;932.8;;;-146.1;100.0
45864;BME280;31579;52.354;16.974;2022-12-08T01:41:02;935.1;;;-146.1;100.0
45864;BME280;31579;52.354;16.974;2022-12-08T01:42:13;956.6;;;-146.1;100.0
45864;BME280;31579;52.354;16.974;2022-12-08T01:43:12;930.6;;;-146.1;100.0
45864;BME280;31579;52.354;16.974;2022-12-08T01:46:18;936.0;;;-146.1;100.0
45864;BME280;31579;52.354;16.974;2022-12-08T01:47:23;939.6;;;-146.1;100.0
45864;BME280;31579;52.354;16.974;2022-12-08T01:48:26;943.0;;;-146.1;100.0
45864;BME280;31579;52.354;16.974;2022-12-08T01:49:29;946.3;;;-146.1;100.0
45864;BME280;31579;52.354;16.974;2022-12-08T01:50:31;948.4;;;-146.1;100.0
45864;BME280;31579;52.354;16.974;2022-12-08T01:51:36;950.4;;;-146.1;100.0
45864;BME280;31579;52.354;16.974;2022-12-08T01:52:40;952.5;;;-146.1;100.0
45864;BME280;31579;52.354;16.974;2022-12-08T01:53:40;954.2;;;-146.1;100.0
45864;BME280;31579;52.354;16.974;2022-12-08T01:54:46;956.2;;;-146.1;100.0
45864;BME280;31579;52.354;16.974;2022-12-08T01:55:48;958.0;;;-146.1;100.0
45864;BME280;31579;52.354;16.974;2022-12-08T01:56:59;959.5;;;-146.1;100.0
45864;BME280;31579;52.354;16.974;2022-12-08T01:57:53;960.7;;;-146.1;100.0
45864;BME280;31579;52.354;16.974;2022-12-08T01:58:55;962.2;;;-146.1;100.0
45864;BME280;31579;52.354;16.974;2022-12-08T02:00:00;963.6;;;-146.1;100.0
45864;BME280;31579;52.354;16.974;2022-12-08T02:01:00;953.6;;;-146.1;100.0
45864;BME280;31579;52.354;16.974;2022-12-08T02:02:03;973.4;;;-146.1;100.0
45864;BME280;31579;52.354;16.974;2022-12-08T02:03:08;967.6;;;-146.1;100.0
45864;BME280;31579;52.354;16.974;2022-12-08T02:04:09;985.9;;;-146.1;100.0
45864;BME280;31579;52.354;16.974;2022-12-08T02:05:12;988.4;;;-146.1;100.0
45864;BME280;31579;52.354;16.974;2022-12-08T02:06:15;987.2;;;-146.1;100.0
45864;BME280;31579;52.354;16.974;2022-12-08T02:07:18;985.3;;;-146.1;100.0
45864;BME280;31579;52.354;16.974;2022-12-08T02:08:21;983.1;;;-146.1;100.0
45864;BME280;31579;52.354;16.974;2022-12-08T02:09:24;981.2;;;-146.1;100.0
45864;BME280;31579;52.354;16.974;2022-12-08T02:10:28;979.3;;;-146.1;100.0
45864;BME280;31579;52.354;16.974;2022-12-08T02:11:30;977.7;;;-146.1;100.0
45864;BME280;31579;52.354;16.974;2022-12-08T02:12:33;976.0;;;-146.1;100.0
45864;BME280;31579;52.354;16.974;2022-12-08T02:13:36;974.8;;;-146.1;100.0
45864;BME280;31579;52.354;16.974;2022-12-08T02:14:39;973.7;;;-146.1;100.0
45864;BME280;31579;52.354;16.974;2022-12-08T02:22:03;960.3;;;-146.1;100.0
45864;BME280;31579;52.354;16.974;2022-12-08T02:34:40;974.6;;;-146.1;100.0
45864;BME280;31579;52.354;16.974;2022-12-08T02:38:55;974.1;;;-146.1;100.0
45864;BME280;31579;52.354;16.974;2022-12-08T02:39:56;974.4;;;-146.1;100.0
45864;BME280;31579;52.354;16.974;2022-12-08T02:42:01;974.7;;;-146.1;100.0
45864;BME280;31579;52.354;16.974;2022-12-08T02:43:02;963.8;;;-146.1;100.0
45864;BME280;31579;52.354;16.974;2022-12-08T02:45:18;986.9;;;-146.1;100.0
45864;BME280;31579;52.354;16.974;2022-12-08T02:46:12;986.6;;;-146.1;100.0
45864;BME280;31579;52.354;16.974;2022-12-08T02:47:15;985.4;;;-146.1;100.0
45864;BME280;31579;52.354;16.974;2022-12-08T02:48:17;984.2;;;-146.1;100.0
45864;BME280;31579;52.354;16.974;2022-12-08T02:49:26;982.7;;;-146.1;100.0
45864;BME280;31579;52.354;16.974;2022-12-08T02:50:25;981.9;;;-146.1;100.0
45864;BME280;31579;52.354;16.974;2022-12-08T02:51:27;980.7;;;-146.1;100.0
45864;BME280;31579;52.354;16.974;2022-12-08T02:53:33;978.5;;;-146.1;100.0
45864;BME280;31579;52.354;16.974;2022-12-08T02:54:37;978.1;;;-146.1;100.0
45864;BME280;31579;52.354;16.974;2022-12-08T02:58:54;977.8;;;-146.1;100.0
45864;BME280;31579;52.354;16.974;2022-12-08T03:04:11;970.3;;;-146.1;100.0
45864;BME280;31579;52.354;16.974;2022-12-08T03:07:18;971.6;;;-146.1;100.0
45864;BME280;31579;52.354;16.974;2022-12-08T03:12:37;964.5;;;-146.1;100.0
45864;BME280;31579;52.354;16.974;2022-12-08T03:14:42;975.4;;;-146.1;100.0
45864;BME280;31579;52.354;16.974;2022-12-08T03:15:44;981.0;;;-146.1;100.0
45864;BME280;31579;52.354;16.974;2022-12-08T03:16:47;985.9;;;-146.1;100.0
45864;BME280;31579;52.354;16.974;2022-12-08T03:17:52;990.6;;;-146.1;100.0
45864;BME280;31579;52.354;16.974;2022-12-08T03:18:57;994.8;;;-146.1;100.0
45864;BME280;31579;52.354;16.974;2022-12-08T03:19:57;998.7;;;-146.1;100.0
45864;BME280;31579;52.354;16.974;2022-12-08T03:21:00;1002.5;;;-146.1;100.0
45864;BME280;31579;52.354;16.974;2022-12-08T03:22:03;1006.1;;;-146.1;100.0
45864;BME280;31579;52.354;16.974;2022-12-08T03:23:07;1009.4;;;-146.1;100.0
45864;BME280;31579;52.354;16.974;2022-12-08T03:24:09;1012.4;;;-146.1;100.0
45864;BME280;31579;52.354;16.974;2022-12-08T03:25:12;1015.2;;;-146.1;100.0
45864;BME280;31579;52.354;16.974;2022-12-08T03:27:19;1021.2;;;-146.1;100.0
45864;BME280;31579;52.354;16.974;2022-12-08T03:28:22;1042.3;;;-146.1;100.0
45864;BME280;31579;52.354;16.974;2022-12-08T03:29:25;1016.3;;;-146.1;100.0
45864;BME280;31579;52.354;16.974;2022-12-08T03:30:28;1014.9;;;-146.1;100.0
45864;BME280;31579;52.354;16.974;2022-12-08T03:31:31;1017.5;;;-146.1;100.0
45864;BME280;31579;52.354;16.974;2022-12-08T03:33:37;1024.1;;;-146.1;100.0
45864;BME280;31579;52.354;16.974;2022-12-08T03:34:41;1027.4;;;-146.1;100.0
45864;BME280;31579;52.354;16.974;2022-12-08T03:35:43;1030.4;;;-146.1;100.0
45864;BME280;31579;52.354;16.974;2022-12-08T03:36:46;1033.6;;;-146.1;100.0
45864;BME280;31579;52.354;16.974;2022-12-08T03:37:49;1036.4;;;-146.1;100.0
45864;BME280;31579;52.354;16.974;2022-12-08T03:38:52;1038.9;;;-146.1;100.0
45864;BME280;31579;52.354;16.974;2022-12-08T03:39:55;1041.1;;;-146.1;100.0
45864;BME280;31579;52.354;16.974;2022-12-08T03:40:58;1043.1;;;-146.1;100.0
45864;BME280;31579;52.354;16.974;2022-12-08T03:42:02;1064.4;;;-146.1;100.0
45864;BME280;31579;52.354;16.974;2022-12-08T03:43:05;1037.1;;;-146.1;100.0
45864;BME280;31579;52.354;16.974;2022-12-08T03:44:08;1035.5;;;-146.1;100.0
45864;BME280;31579;52.354;16.974;2022-12-08T03:45:11;1038.1;;;-146.1;100.0
45864;BME280;31579;52.354;16.974;2022-12-08T03:46:14;1041.0;;;-146.1;100.0
45864;BME280;31579;52.354;16.974;2022-12-08T03:47:17;1044.1;;;-146.1;100.0
45864;BME280;31579;52.354;16.974;2022-12-08T03:48:20;1047.4;;;-146.1;100.0
45864;BME280;31579;52.354;16.974;2022-12-08T03:49:23;1050.2;;;-146.1;100.0
45864;BME280;31579;52.354;16.974;2022-12-08T03:50:26;1052.8;;;-146.1;100.0
45864;BME280;31579;52.354;16.974;2022-12-08T03:51:29;1055.3;;;-146.1;100.0
45864;BME280;31579;52.354;16.974;2022-12-08T03:52:32;1057.8;;;-146.1;100.0
45864;BME280;31579;52.354;16.974;2022-12-08T03:53:35;1060.0;;;-146.1;100.0
45864;BME280;31579;52.354;16.974;2022-12-08T03:54:38;1062.2;;;-146.1;100.0
45864;BME280;31579;52.354;16.974;2022-12-08T03:55:41;1064.4;;;-146.1;100.0
45864;BME280;31579;52.354;16.974;2022-12-08T03:56:44;1066.2;;;-146.1;100.0
45864;BME280;31579;52.354;16.974;2022-12-08T03:57:47;1068.0;;;-146.1;100.0
45864;BME280;31579;52.354;16.974;2022-12-08T03:58:50;1069.9;;;-146.1;100.0
45864;BME280;31579;52.354;16.974;2022-12-08T03:59:53;1071.3;;;-146.1;100.0
45864;BME280;31579;52.354;16.974;2022-12-08T04:00:56;1073.3;;;-146.1;100.0
45864;BME280;31579;52.354;16.974;2022-12-08T04:02:00;1074.8;;;-146.1;100.0
45864;BME280;31579;52.354;16.974;2022-12-08T04:03:03;1076.6;;;-146.1;100.0
45864;BME280;31579;52.354;16.974;2022-12-08T04:04:06;1078.0;;;-146.1;100.0
45864;BME280;31579;52.354;16.974;2022-12-08T04:05:09;1079.4;;;-146.1;100.0
45864;BME280;31579;52.354;16.974;2022-12-08T04:06:12;1080.7;;;-146.1;100.0
45864;BME280;31579;52.354;16.974;2022-12-08T04:07:16;1082.2;;;-146.1;100.0
45864;BME280;31579;52.354;16.974;2022-12-08T04:08:19;1083.8;;;-146.1;100.0
45864;BME280;31579;52.354;16.974;2022-12-08T04:09:22;1084.8;;;-146.1;100.0
45864;BME280;31579;52.354;16.974;2022-12-08T04:10:25;1086.3;;;-146.1;100.0
45864;BME280;31579;52.354;16.974;2022-12-08T04:11:28;1087.3;;;-146.1;100.0
45864;BME280;31579;52.354;16.974;2022-12-08T04:12:31;1088.7;;;-146.1;100.0
45864;BME280;31579;52.354;16.974;2022-12-08T04:13:34;1089.7;;;-146.1;100.0
45864;BME280;31579;52.354;16.974;2022-12-08T04:14:37;1090.9;;;-146.1;100.0
45864;BME280;31579;52.354;16.974;2022-12-08T04:15:43;1091.4;;;-146.1;100.0
45864;BME280;31579;52.354;16.974;2022-12-08T04:16:43;1091.6;;;-146.1;100.0
45864;BME280;31579;52.354;16.974;2022-12-08T04:17:46;1092.3;;;-146.1;100.0
45864;BME280;31579;52.354;16.974;2022-12-08T04:18:50;1093.1;;;-146.1;100.0
45864;BME280;31579;52.354;16.974;2022-12-08T04:19:53;1093.7;;;-146.1;100.0
45864;BME280;31579;52.354;16.974;2022-12-08T04:20:56;1094.5;;;-146.1;100.0
45864;BME280;31579;52.354;16.974;2022-12-08T04:22:00;1095.1;;;-146.1;100.0
45864;BME280;31579;52.354;16.974;2022-12-08T04:23:03;1096.0;;;-146.1;100.0
45864;BME280;31579;52.354;16.974;2022-12-08T04:24:06;1096.7;;;-146.1;100.0
45864;BME280;31579;52.354;16.974;2022-12-08T04:25:09;1097.3;;;-146.1;100.0
45864;BME280;31579;52.354;16.974;2022-12-08T04:26:12;1097.9;;;-146.1;100.0
45864;BME280;31579;52.354;16.974;2022-12-08T04:27:15;1098.7;;;-146.1;100.0
45864;BME280;31579;52.354;16.974;2022-12-08T04:28:18;1099.3;;;-146.1;100.0
45864;BME280;31579;52.354;16.974;2022-12-08T04:29:22;1119.8;;;-146.1;100.0
45864;BME280;31579;52.354;16.974;2022-12-08T04:30:25;1090.1;;;-146.1;100.0
45864;BME280;31579;52.354;16.974;2022-12-08T04:31:42;1125.5;;;-146.1;100.0
45864;BME280;31579;52.354;16.974;2022-12-08T04:32:45;1060.6;;;-146.1;100.0
45864;BME280;31579;52.354;16.974;2022-12-08T04:33:48;1056.8;;;-146.1;100.0
45864;BME280;31579;52.354;16.974;2022-12-08T04:34:51;1061.5;;;-146.1;100.0
45864;BME280;31579;52.354;16.974;2022-12-08T04:35:54;1067.5;;;-146.1;100.0
45864;BME280;31579;52.354;16.974;2022-12-08T04:36:51;1078.8;;;-146.1;100.0
45864;BME280;31579;52.354;16.974;2022-12-08T04:37:54;1071.9;;;-146.1;100.0
45864;BME280;31579;52.354;16.974;2022-12-08T04:38:57;1076.5;;;-146.1;100.0
45864;BME280;31579;52.354;16.974;2022-12-08T04:40:02;1102.4;;;-146.1;100.0
45864;BME280;31579;52.354;16.974;2022-12-08T04:41:05;1078.7;;;-146.1;100.0
45864;BME280;31579;52.354;16.974;2022-12-08T04:42:08;1081.8;;;-146.1;100.0
45864;BME280;31579;52.354;16.974;2022-12-08T04:43:11;1087.7;;;-146.1;100.0
45864;BME280;31579;52.354;16.974;2022-12-08T04:44:14;1093.9;;;-146.1;100.0
45864;BME280;31579;52.354;16.974;2022-12-08T04:45:17;1099.9;;;-146.1;100.0
45864;BME280;31579;52.354;16.974;2022-12-08T04:46:20;1105.5;;;-146.1;100.0
45864;BME280;31579;52.354;16.974;2022-12-08T04:47:23;1110.6;;;-146.1;100.0
45864;BME280;31579;52.354;16.974;2022-12-08T04:48:26;1115.0;;;-146.1;100.0
45864;BME280;31579;52.354;16.974;2022-12-08T04:49:29;1118.7;;;-146.1;100.0
45864;BME280;31579;52.354;16.974;2022-12-08T04:50:32;1122.2;;;-146.1;100.0
45864;BME280;31579;52.354;16.974;2022-12-08T04:51:35;1125.2;;;-146.1;100.0
45864;BME280;31579;52.354;16.974;2022-12-08T04:52:38;1128.1;;;-146.1;100.0
45864;BME280;31579;52.354;16.974;2022-12-08T04:53:42;1130.6;;;-146.1;100.0
45864;BME280;31579;52.354;16.974;2022-12-08T04:54:44;1133.2;;;-146.1;100.0
45864;BME280;31579;52.354;16.974;2022-12-08T04:55:46;1123.2;;;-146.1;100.0
45864;BME280;31579;52.354;16.974;2022-12-08T04:56:48;1134.0;;;-146.1;100.0
45864;BME280;31579;52.354;16.974;2022-12-08T04:57:51;1165.3;;;-146.1;100.0
45864;BME280;31579;52.354;16.974;2022-12-08T04:58:54;1170.0;;;-146.1;100.0
45864;BME280;31579;52.354;16.974;2022-12-08T04:59:57;1170.0;;;-146.1;100.0
45864;BME280;31579;52.354;16.974;2022-12-08T05:01:00;1158.1;;;-146.1;100.0
45864;BME280;31579;52.354;16.974;2022-12-08T05:02:04;1175.3;;;-146.1;100.0
45864;BME280;31579;52.354;16.974;2022-12-08T05:03:07;1176.4;;;-146.1;100.0
45864;BME280;31579;52.354;16.974;2022-12-08T05:04:10;1174.9;;;-146.1;100.0
45864;BME280;31579;52.354;16.974;2022-12-08T05:05:13;1172.4;;;-146.1;100.0
45864;BME280;31579;52.354;16.974;2022-12-08T05:06:16;1169.5;;;-146.1;100.0
45864;BME280;31579;52.354;16.974;2022-12-08T05:07:19;1166.2;;;-146.1;100.0
45864;BME280;31579;52.354;16.974;2022-12-08T05:08:22;1162.6;;;-146.1;100.0
45864;BME280;31579;52.354;16.974;2022-12-08T05:09:25;1159.0;;;-146.1;100.0
45864;BME280;31579;52.354;16.974;2022-12-08T05:10:28;1155.7;;;-146.1;100.0
45864;BME280;31579;52.354;16.974;2022-12-08T05:11:31;1152.4;;;-146.1;100.0
45864;BME280;31579;52.354;16.974;2022-12-08T05:12:34;1148.8;;;-146.1;100.0
45864;BME280;31579;52.354;16.974;2022-12-08T05:13:38;1145.6;;;-146.1;100.0
45864;BME280;31579;52.354;16.974;2022-12-08T05:14:52;1170.7;;;-146.1;100.0
45864;BME280;31579;52.354;16.974;2022-12-08T05:16:59;1111.0;;;-146.1;100.0
45864;BME280;31579;52.354;16.974;2022-12-08T05:18:03;1109.7;;;-146.1;100.0
45864;BME280;31579;52.354;16.974;2022-12-08T05:19:06;1109.5;;;-146.1;100.0
45864;BME280;31579;52.354;16.974;2022-12-08T05:20:10;1110.1;;;-146.1;100.0
45864;BME280;31579;52.354;16.974;2022-12-08T05:21:13;1110.3;;;-146.1;100.0
45864;BME280;31579;52.354;16.974;2022-12-08T05:22:15;1110.6;;;-146.1;100.0
45864;BME280;31579;52.354;16.974;2022-12-08T05:23:18;1110.9;;;-146.1;100.0
45864;BME280;31579;52.354;16.974;2022-12-08T05:24:22;1111.5;;;-146.1;100.0
45864;BME280;31579;52.354;16.974;2022-12-08T05:25:26;1111.8;;;-146.1;100.0
45864;BME280;31579;52.354;16.974;2022-12-08T05:26:28;1111.4;;;-146.1;100.0
45864;BME280;31579;52.354;16.974;2022-12-08T05:27:31;1111.3;;;-146.1;100.0
45864;BME280;31579;52.354;16.974;2022-12-08T05:28:34;1111.0;;;-146.1;100.0
45864;BME280;31579;52.354;16.974;2022-12-08T05:29:38;1111.0;;;-146.1;100.0
45864;BME280;31579;52.354;16.974;2022-12-08T05:30:41;1110.9;;;-146.1;100.0
45864;BME280;31579;52.354;16.974;2022-12-08T05:31:44;1110.8;;;-146.1;100.0
45864;BME280;31579;52.354;16.974;2022-12-08T05:32:48;1110.4;;;-146.1;100.0
45864;BME280;31579;52.354;16.974;2022-12-08T05:33:51;1110.0;;;-146.1;100.0
45864;BME280;31579;52.354;16.974;2022-12-08T05:34:53;1109.8;;;-146.1;100.0
45864;BME280;31579;52.354;16.974;2022-12-08T05:35:56;1109.6;;;-146.1;100.0
45864;BME280;31579;52.354;16.974;2022-12-08T05:37:01;1130.4;;;-146.1;100.0
45864;BME280;31579;52.354;16.974;2022-12-08T05:38:05;1099.7;;;-146.1;100.0
45864;BME280;31579;52.354;16.974;2022-12-08T05:39:10;1096.0;;;-146.1;100.0
45864;BME280;31579;52.354;16.974;2022-12-08T05:40:10;1096.3;;;-146.1;100.0
45864;BME280;31579;52.354;16.974;2022-12-08T05:41:22;1157.1;;;-146.1;100.0
45864;BME280;31579;52.354;16.974;2022-12-08T05:42:24;1065.0;;;-146.1;100.0
45864;BME280;31579;52.354;16.974;2022-12-08T05:43:28;1057.9;;;-146.1;100.0
45864;BME280;31579;52.354;16.974;2022-12-08T05:44:31;1061.1;;;-146.1;100.0
45864;BME280;31579;52.354;16.974;2022-12-08T05:45:33;1066.5;;;-146.1;100.0
45864;BME280;31579;52.354;16.974;2022-12-08T05:46:37;1072.1;;;-146.1;100.0
45864;BME280;31579;52.354;16.974;2022-12-08T05:47:39;1077.3;;;-146.1;100.0
45864;BME280;31579;52.354;16.974;2022-12-08T05:48:42;1082.6;;;-146.1;100.0
45864;BME280;31579;52.354;16.974;2022-12-08T05:49:46;1087.3;;;-146.1;100.0
45864;BME280;31579;52.354;16.974;2022-12-08T05:50:49;1091.2;;;-146.1;100.0
45864;BME280;31579;52.354;16.974;2022-12-08T05:51:51;1094.5;;;-146.1;100.0
45864;BME280;31579;52.354;16.974;2022-12-08T05:52:55;1097.7;;;-146.1;100.0
45864;BME280;31579;52.354;16.974;2022-12-08T05:53:59;1101.1;;;-146.1;100.0
45864;BME280;31579;52.354;16.974;2022-12-08T05:55:01;1090.3;;;-146.1;100.0
45864;BME280;31579;52.354;16.974;2022-12-08T05:56:05;1116.2;;;-146.1;100.0
45864;BME280;31579;52.354;16.974;2022-12-08T05:57:08;1122.6;;;-146.1;100.0
45864;BME280;31579;52.354;16.974;2022-12-08T05:58:12;1124.9;;;-146.1;100.0
45864;BME280;31579;52.354;16.974;2022-12-08T05:59:15;1125.8;;;-146.1;100.0
45864;BME280;31579;52.354;16.974;2022-12-08T06:00:18;1125.9;;;-146.1;100.0
45864;BME280;31579;52.354;16.974;2022-12-08T06:01:22;1125.5;;;-146.1;100.0
45864;BME280;31579;52.354;16.974;2022-12-08T06:02:24;1125.1;;;-146.1;100.0
45864;BME280;31579;52.354;16.974;2022-12-08T06:03:26;1124.7;;;-146.1;100.0
45864;BME280;31579;52.354;16.974;2022-12-08T06:04:30;1123.9;;;-146.1;100.0
45864;BME280;31579;52.354;16.974;2022-12-08T06:05:33;1123.1;;;-146.1;100.0
45864;BME280;31579;52.354;16.974;2022-12-08T06:06:35;1122.3;;;-146.1;100.0
45864;BME280;31579;52.354;16.974;2022-12-08T06:07:38;1121.4;;;-146.1;100.0
45864;BME280;31579;52.354;16.974;2022-12-08T06:08:42;1120.5;;;-146.1;100.0
45864;BME280;31579;52.354;16.974;2022-12-08T06:09:44;1119.3;;;-146.1;100.0
45864;BME280;31579;52.354;16.974;2022-12-08T06:10:48;1118.5;;;-146.1;100.0
45864;BME280;31579;52.354;16.974;2022-12-08T06:11:50;1117.3;;;-146.1;100.0
45864;BME280;31579;52.354;16.974;2022-12-08T06:12:54;1116.2;;;-146.1;100.0
45864;BME280;31579;52.354;16.974;2022-12-08T06:13:57;1115.0;;;-146.1;100.0
45864;BME280;31579;52.354;16.974;2022-12-08T06:15:08;1176.6;;;-146.1;100.0
45864;BME280;31579;52.354;16.974;2022-12-08T06:16:11;1078.3;;;-146.1;100.0
45864;BME280;31579;52.354;16.974;2022-12-08T06:17:14;1067.5;;;-146.1;100.0
45864;BME280;31579;52.354;16.974;2022-12-08T06:18:17;1066.5;;;-146.1;100.0
45864;BME280;31579;52.354;16.974;2022-12-08T06:19:20;1067.8;;;-146.1;100.0
45864;BME280;31579;52.354;16.974;2022-12-08T06:20:23;1069.7;;;-146.1;100.0
45864;BME280;31579;52.354;16.974;2022-12-08T06:21:26;1072.3;;;-146.1;100.0
45864;BME280;31579;52.354;16.974;2022-12-08T06:22:29;1074.7;;;-146.1;100.0
45864;BME280;31579;52.354;16.974;2022-12-08T06:23:47;1116.5;;;-146.1;100.0
45864;BME280;31579;52.354;16.974;2022-12-08T06:24:50;1048.0;;;-146.1;100.0